sensor_id;sensor_type;location;lat;lon;timestamp;temperature;humidity
1988;DHT22;12775;46.994;15.498;2023-06-22T00:00:46;24.30;99.90
1988;DHT22;12775;46.994;15.498;2023-06-22T00:03:13;24.30;99.90
1988;DHT22;12775;46.994;15.498;2023-06-22T00:05:39;24.30;99.90
1988;DHT22;12775;46.994;15.498;2023-06-22T00:08:06;24.30;99.90
1988;DHT22;12775;46.994;15.498;2023-06-22T00:10:33;24.20;99.90
1988;DHT22;12775;46.994;15.498;2023-06-22T00:13:00;24.20;99.90
1988;DHT22;12775;46.994;15.498;2023-06-22T00:15:27;24.30;99.90
1988;DHT22;12775;46.994;15.498;2023-06-22T00:17:53;24.20;99.90
1988;DHT22;12775;46.994;15.498;2023-06-22T00:20:20;24.20;99.90
1988;DHT22;12775;46.994;15.498;2023-06-22T00:22:47;24.20;99.90
1988;DHT22;12775;46.994;15.498;2023-06-22T00:25:13;24.20;99.90
1988;DHT22;12775;46.994;15.498;2023-06-22T00:27:40;24.10;99.90
1988;DHT22;12775;46.994;15.498;2023-06-22T00:30:07;24.10;99.90
1988;DHT22;12775;46.994;15.498;2023-06-22T00:32:34;24.10;99.90
1988;DHT22;12775;46.994;15.498;2023-06-22T00:35:00;24.10;99.90
1988;DHT22;12775;46.994;15.498;2023-06-22T00:37:27;24.10;99.90
1988;DHT22;12775;46.994;15.498;2023-06-22T00:39:53;24.10;99.90
1988;DHT22;12775;46.994;15.498;2023-06-22T00:42:20;24.10;99.90
1988;DHT22;12775;46.994;15.498;2023-06-22T00:44:47;24.00;99.90
1988;DHT22;12775;46.994;15.498;2023-06-22T00:47:14;24.00;99.90
1988;DHT22;12775;46.994;15.498;2023-06-22T00:49:41;24.00;99.90
1988;DHT22;12775;46.994;15.498;2023-06-22T00:52:07;24.00;99.90
1988;DHT22;12775;46.994;15.498;2023-06-22T00:54:36;23.90;99.90
1988;DHT22;12775;46.994;15.498;2023-06-22T00:57:03;23.90;99.90
1988;DHT22;12775;46.994;15.498;2023-06-22T00:59:30;23.90;99.90
1988;DHT22;12775;46.994;15.498;2023-06-22T01:01:56;23.90;99.90
1988;DHT22;12775;46.994;15.498;2023-06-22T01:04:24;23.80;99.90
1988;DHT22;12775;46.994;15.498;2023-06-22T01:06:59;23.80;99.90
1988;DHT22;12775;46.994;15.498;2023-06-22T01:09:28;23.80;99.90
1988;DHT22;12775;46.994;15.498;2023-06-22T01:11:54;23.70;99.90
1988;DHT22;12775;46.994;15.498;2023-06-22T01:14:24;23.70;99.90
1988;DHT22;12775;46.994;15.498;2023-06-22T01:16:50;23.70;99.90
1988;DHT22;12775;46.994;15.498;2023-06-22T01:22:05;23.60;99.90
1988;DHT22;12775;46.994;15.498;2023-06-22T01:24:39;23.60;99.90
1988;DHT22;12775;46.994;15.498;2023-06-22T01:27:09;23.50;99.90
1988;DHT22;12775;46.994;15.498;2023-06-22T01:29:32;23.50;99.90
1988;DHT22;12775;46.994;15.498;2023-06-22T01:31:59;23.50;99.90
1988;DHT22;12775;46.994;15.498;2023-06-22T01:34:25;23.50;99.90
1988;DHT22;12775;46.994;15.498;2023-06-22T01:36:52;23.40;99.90
1988;DHT22;12775;46.994;15.498;2023-06-22T01:39:19;23.40;99.90
1988;DHT22;12775;46.994;15.498;2023-06-22T01:41:45;23.40;99.90
1988;DHT22;12775;46.994;15.498;2023-06-22T01:44:12;23.30;99.90
1988;DHT22;12775;46.994;15.498;2023-06-22T01:46:38;23.20;99.90
1988;DHT22;12775;46.994;15.498;2023-06-22T01:49:05;23.20;99.90
1988;DHT22;12775;46.994;15.498;2023-06-22T01:51:32;23.20;99.90
1988;DHT22;12775;46.994;15.498;2023-06-22T01:53:58;23.10;99.90
1988;DHT22;12775;46.994;15.498;2023-06-22T01:56:25;23.10;99.90
1988;DHT22;12775;46.994;15.498;2023-06-22T01:59:09;23.10;99.90
1988;DHT22;12775;46.994;15.498;2023-06-22T02:01:44;23.20;99.90
1988;DHT22;12775;46.994;15.498;2023-06-22T02:04:15;23.10;99.90
1988;DHT22;12775;46.994;15.498;2023-06-22T02:06:41;23.10;99.90
1988;DHT22;12775;46.994;15.498;2023-06-22T02:09:08;23.10;99.90
1988;DHT22;12775;46.994;15.498;2023-06-22T02:11:33;23.10;99.90
1988;DHT22;12775;46.994;15.498;2023-06-22T02:13:59;23.10;99.90
1988;DHT22;12775;46.994;15.498;2023-06-22T02:16:26;23.10;99.90
1988;DHT22;12775;46.994;15.498;2023-06-22T02:18:53;23.10;99.90
1988;DHT22;12775;46.994;15.498;2023-06-22T02:21:19;23.10;99.90
1988;DHT22;12775;46.994;15.498;2023-06-22T02:23:47;23.10;99.90
1988;DHT22;12775;46.994;15.498;2023-06-22T02:26:13;23.10;99.90
1988;DHT22;12775;46.994;15.498;2023-06-22T02:28:40;23.10;99.90
1988;DHT22;12775;46.994;15.498;2023-06-22T02:31:06;23.00;99.90
1988;DHT22;12775;46.994;15.498;2023-06-22T02:33:33;23.00;99.90
1988;DHT22;12775;46.994;15.498;2023-06-22T02:36:00;23.00;99.90
1988;DHT22;12775;46.994;15.498;2023-06-22T02:38:27;22.90;99.90
1988;DHT22;12775;46.994;15.498;2023-06-22T02:40:53;23.00;99.90
1988;DHT22;12775;46.994;15.498;2023-06-22T02:43:20;23.00;99.90
1988;DHT22;12775;46.994;15.498;2023-06-22T02:45:47;22.90;99.90
1988;DHT22;12775;46.994;15.498;2023-06-22T02:48:13;22.80;99.90
1988;DHT22;12775;46.994;15.498;2023-06-22T02:50:40;22.80;99.90
1988;DHT22;12775;46.994;15.498;2023-06-22T02:53:06;22.80;99.90
1988;DHT22;12775;46.994;15.498;2023-06-22T02:55:33;22.80;99.90
1988;DHT22;12775;46.994;15.498;2023-06-22T02:58:00;22.80;99.90
1988;DHT22;12775;46.994;15.498;2023-06-22T03:00:26;22.70;99.90
1988;DHT22;12775;46.994;15.498;2023-06-22T03:02:53;22.70;99.90
1988;DHT22;12775;46.994;15.498;2023-06-22T03:05:19;22.70;99.90
1988;DHT22;12775;46.994;15.498;2023-06-22T03:07:46;22.70;99.90
1988;DHT22;12775;46.994;15.498;2023-06-22T03:10:13;22.70;99.90
1988;DHT22;12775;46.994;15.498;2023-06-22T03:12:39;22.80;99.90
1988;DHT22;12775;46.994;15.498;2023-06-22T03:15:07;22.70;99.90
1988;DHT22;12775;46.994;15.498;2023-06-22T03:17:34;22.70;99.90
1988;DHT22;12775;46.994;15.498;2023-06-22T03:20:02;22.70;99.90
1988;DHT22;12775;46.994;15.498;2023-06-22T03:22:28;22.60;99.90
1988;DHT22;12775;46.994;15.498;2023-06-22T03:24:54;22.60;99.90
1988;DHT22;12775;46.994;15.498;2023-06-22T03:27:21;22.60;99.90
1988;DHT22;12775;46.994;15.498;2023-06-22T03:29:47;22.60;99.90
1988;DHT22;12775;46.994;15.498;2023-06-22T03:32:14;22.50;99.90
1988;DHT22;12775;46.994;15.498;2023-06-22T03:34:41;22.60;99.90
1988;DHT22;12775;46.994;15.498;2023-06-22T03:37:08;22.50;99.90
1988;DHT22;12775;46.994;15.498;2023-06-22T03:39:35;22.50;99.90
1988;DHT22;12775;46.994;15.498;2023-06-22T03:42:01;22.50;99.90
1988;DHT22;12775;46.994;15.498;2023-06-22T03:44:28;22.50;99.90
1988;DHT22;12775;46.994;15.498;2023-06-22T03:46:54;22.50;99.90
1988;DHT22;12775;46.994;15.498;2023-06-22T03:49:21;22.50;99.90
1988;DHT22;12775;46.994;15.498;2023-06-22T03:51:48;22.50;99.90
1988;DHT22;12775;46.994;15.498;2023-06-22T03:54:15;22.60;99.90
1988;DHT22;12775;46.994;15.498;2023-06-22T03:56:42;22.60;99.90
1988;DHT22;12775;46.994;15.498;2023-06-22T03:59:08;22.60;99.90
1988;DHT22;12775;46.994;15.498;2023-06-22T04:01:35;22.70;99.90
1988;DHT22;12775;46.994;15.498;2023-06-22T04:04:01;22.80;99.90
1988;DHT22;12775;46.994;15.498;2023-06-22T04:06:28;22.90;99.90
1988;DHT22;12775;46.994;15.498;2023-06-22T04:08:55;23.00;99.90
1988;DHT22;12775;46.994;15.498;2023-06-22T04:11:21;23.10;99.90
1988;DHT22;12775;46.994;15.498;2023-06-22T04:13:49;23.30;99.90
1988;DHT22;12775;46.994;15.498;2023-06-22T04:16:15;23.30;99.90
1988;DHT22;12775;46.994;15.498;2023-06-22T04:18:42;23.40;99.90
1988;DHT22;12775;46.994;15.498;2023-06-22T04:21:09;23.50;99.90
1988;DHT22;12775;46.994;15.498;2023-06-22T04:23:35;23.60;99.90
1988;DHT22;12775;46.994;15.498;2023-06-22T04:26:02;23.80;99.90
1988;DHT22;12775;46.994;15.498;2023-06-22T04:28:29;23.70;99.90
1988;DHT22;12775;46.994;15.498;2023-06-22T04:30:55;23.80;99.90
1988;DHT22;12775;46.994;15.498;2023-06-22T04:33:22;23.80;99.90
1988;DHT22;12775;46.994;15.498;2023-06-22T04:35:49;23.90;99.90
1988;DHT22;12775;46.994;15.498;2023-06-22T04:38:15;24.10;99.90
1988;DHT22;12775;46.994;15.498;2023-06-22T04:40:42;24.20;99.90
1988;DHT22;12775;46.994;15.498;2023-06-22T04:43:08;24.40;99.90
1988;DHT22;12775;46.994;15.498;2023-06-22T04:45:35;24.60;99.90
1988;DHT22;12775;46.994;15.498;2023-06-22T04:48:02;24.80;99.90
1988;DHT22;12775;46.994;15.498;2023-06-22T04:50:28;25.00;99.90
1988;DHT22;12775;46.994;15.498;2023-06-22T04:52:55;25.20;99.90
1988;DHT22;12775;46.994;15.498;2023-06-22T04:55:22;25.30;99.90
1988;DHT22;12775;46.994;15.498;2023-06-22T04:57:48;25.50;99.90
1988;DHT22;12775;46.994;15.498;2023-06-22T05:00:16;25.60;99.90
1988;DHT22;12775;46.994;15.498;2023-06-22T05:02:43;25.90;99.90
1988;DHT22;12775;46.994;15.498;2023-06-22T05:05:09;26.10;99.90
1988;DHT22;12775;46.994;15.498;2023-06-22T05:07:36;26.20;99.90
1988;DHT22;12775;46.994;15.498;2023-06-22T05:10:03;26.40;99.90
1988;DHT22;12775;46.994;15.498;2023-06-22T05:12:29;26.50;99.90
1988;DHT22;12775;46.994;15.498;2023-06-22T05:14:57;26.80;99.90
1988;DHT22;12775;46.994;15.498;2023-06-22T05:17:24;27.00;99.90
1988;DHT22;12775;46.994;15.498;2023-06-22T05:19:51;27.00;99.90
1988;DHT22;12775;46.994;15.498;2023-06-22T05:22:18;27.30;99.90
1988;DHT22;12775;46.994;15.498;2023-06-22T05:24:45;27.30;99.90
1988;DHT22;12775;46.994;15.498;2023-06-22T05:27:12;27.60;99.90
1988;DHT22;12775;46.994;15.498;2023-06-22T05:29:39;27.60;99.90
1988;DHT22;12775;46.994;15.498;2023-06-22T05:32:05;27.60;99.90
1988;DHT22;12775;46.994;15.498;2023-06-22T05:34:32;27.80;99.90
1988;DHT22;12775;46.994;15.498;2023-06-22T05:36:59;28.00;99.90
1988;DHT22;12775;46.994;15.498;2023-06-22T05:39:25;28.20;99.90
1988;DHT22;12775;46.994;15.498;2023-06-22T05:41:52;28.40;99.30
1988;DHT22;12775;46.994;15.498;2023-06-22T05:44:19;28.50;99.60
1988;DHT22;12775;46.994;15.498;2023-06-22T05:46:45;28.80;99.90
1988;DHT22;12775;46.994;15.498;2023-06-22T05:49:12;29.00;97.20
1988;DHT22;12775;46.994;15.498;2023-06-22T05:51:39;29.20;97.50
1988;DHT22;12775;46.994;15.498;2023-06-22T05:54:05;29.20;97.10
1988;DHT22;12775;46.994;15.498;2023-06-22T05:56:32;29.60;97.40
1988;DHT22;12775;46.994;15.498;2023-06-22T05:58:59;29.60;97.40
1988;DHT22;12775;46.994;15.498;2023-06-22T06:01:25;29.80;96.30
1988;DHT22;12775;46.994;15.498;2023-06-22T06:03:52;30.00;96.80
1988;DHT22;12775;46.994;15.498;2023-06-22T06:06:19;30.20;96.30
1988;DHT22;12775;46.994;15.498;2023-06-22T06:08:46;30.30;95.10
1988;DHT22;12775;46.994;15.498;2023-06-22T06:11:14;30.40;96.50
1988;DHT22;12775;46.994;15.498;2023-06-22T06:13:39;30.50;95.40
1988;DHT22;12775;46.994;15.498;2023-06-22T06:16:06;30.60;93.00
1988;DHT22;12775;46.994;15.498;2023-06-22T06:18:32;30.40;93.40
1988;DHT22;12775;46.994;15.498;2023-06-22T06:20:59;30.40;95.00
1988;DHT22;12775;46.994;15.498;2023-06-22T06:23:26;30.70;96.90
1988;DHT22;12775;46.994;15.498;2023-06-22T06:25:52;30.80;95.10
1988;DHT22;12775;46.994;15.498;2023-06-22T06:28:19;31.00;91.90
1988;DHT22;12775;46.994;15.498;2023-06-22T06:30:45;31.10;92.50
1988;DHT22;12775;46.994;15.498;2023-06-22T06:33:12;31.20;91.30
1988;DHT22;12775;46.994;15.498;2023-06-22T06:35:39;31.20;92.10
1988;DHT22;12775;46.994;15.498;2023-06-22T06:38:05;31.40;90.60
1988;DHT22;12775;46.994;15.498;2023-06-22T06:40:32;31.60;92.40
1988;DHT22;12775;46.994;15.498;2023-06-22T06:42:58;31.70;90.20
1988;DHT22;12775;46.994;15.498;2023-06-22T06:45:25;31.70;90.20
1988;DHT22;12775;46.994;15.498;2023-06-22T06:47:51;31.90;92.70
1988;DHT22;12775;46.994;15.498;2023-06-22T06:50:18;31.90;87.10
1988;DHT22;12775;46.994;15.498;2023-06-22T06:52:45;32.00;87.60
1988;DHT22;12775;46.994;15.498;2023-06-22T06:55:11;32.00;89.60
1988;DHT22;12775;46.994;15.498;2023-06-22T06:57:38;32.00;87.20
1988;DHT22;12775;46.994;15.498;2023-06-22T07:00:05;32.00;90.60
1988;DHT22;12775;46.994;15.498;2023-06-22T07:02:33;32.00;88.80
1988;DHT22;12775;46.994;15.498;2023-06-22T07:05:00;32.30;93.00
1988;DHT22;12775;46.994;15.498;2023-06-22T07:07:27;32.50;91.40
1988;DHT22;12775;46.994;15.498;2023-06-22T07:09:53;32.60;90.60
1988;DHT22;12775;46.994;15.498;2023-06-22T07:12:20;32.80;92.40
1988;DHT22;12775;46.994;15.498;2023-06-22T07:14:46;33.00;89.20
1988;DHT22;12775;46.994;15.498;2023-06-22T07:17:13;33.10;84.00
1988;DHT22;12775;46.994;15.498;2023-06-22T07:19:40;33.00;84.40
1988;DHT22;12775;46.994;15.498;2023-06-22T07:22:06;33.00;81.10
1988;DHT22;12775;46.994;15.498;2023-06-22T07:24:33;33.10;84.20
1988;DHT22;12775;46.994;15.498;2023-06-22T07:27:00;33.50;88.70
1988;DHT22;12775;46.994;15.498;2023-06-22T07:29:27;33.50;88.80
1988;DHT22;12775;46.994;15.498;2023-06-22T07:31:53;33.60;88.00
1988;DHT22;12775;46.994;15.498;2023-06-22T07:34:20;33.80;90.30
1988;DHT22;12775;46.994;15.498;2023-06-22T07:36:47;33.90;83.90
1988;DHT22;12775;46.994;15.498;2023-06-22T07:39:13;33.80;81.90
1988;DHT22;12775;46.994;15.498;2023-06-22T07:41:40;34.00;84.60
1988;DHT22;12775;46.994;15.498;2023-06-22T07:44:07;34.10;82.40
1988;DHT22;12775;46.994;15.498;2023-06-22T07:46:34;34.20;84.00
1988;DHT22;12775;46.994;15.498;2023-06-22T07:49:00;34.30;80.20
1988;DHT22;12775;46.994;15.498;2023-06-22T07:51:27;34.40;86.30
1988;DHT22;12775;46.994;15.498;2023-06-22T07:53:53;34.40;80.20
1988;DHT22;12775;46.994;15.498;2023-06-22T07:56:20;34.60;85.30
1988;DHT22;12775;46.994;15.498;2023-06-22T07:58:47;34.70;83.10
1988;DHT22;12775;46.994;15.498;2023-06-22T08:01:14;34.90;82.00
1988;DHT22;12775;46.994;15.498;2023-06-22T08:03:41;34.90;78.30
1988;DHT22;12775;46.994;15.498;2023-06-22T08:06:08;34.80;78.70
1988;DHT22;12775;46.994;15.498;2023-06-22T08:08:35;34.70;78.60
1988;DHT22;12775;46.994;15.498;2023-06-22T08:11:01;35.00;85.10
1988;DHT22;12775;46.994;15.498;2023-06-22T08:13:28;35.10;81.40
1988;DHT22;12775;46.994;15.498;2023-06-22T08:15:54;35.20;82.10
1988;DHT22;12775;46.994;15.498;2023-06-22T08:18:21;35.30;78.00
1988;DHT22;12775;46.994;15.498;2023-06-22T08:20:48;35.40;83.90
1988;DHT22;12775;46.994;15.498;2023-06-22T08:23:14;35.20;82.20
1988;DHT22;12775;46.994;15.498;2023-06-22T08:25:41;35.30;82.20
1988;DHT22;12775;46.994;15.498;2023-06-22T08:28:07;35.30;77.00
1988;DHT22;12775;46.994;15.498;2023-06-22T08:30:34;35.30;81.30
1988;DHT22;12775;46.994;15.498;2023-06-22T08:33:01;35.30;74.80
1988;DHT22;12775;46.994;15.498;2023-06-22T08:35:27;35.50;76.20
1988;DHT22;12775;46.994;15.498;2023-06-22T08:37:54;35.50;77.00
1988;DHT22;12775;46.994;15.498;2023-06-22T08:40:21;35.70;77.20
1988;DHT22;12775;46.994;15.498;2023-06-22T08:42:47;35.80;78.30
1988;DHT22;12775;46.994;15.498;2023-06-22T08:45:14;35.80;75.80
1988;DHT22;12775;46.994;15.498;2023-06-22T08:47:40;35.90;84.50
1988;DHT22;12775;46.994;15.498;2023-06-22T08:50:10;36.00;82.00
1988;DHT22;12775;46.994;15.498;2023-06-22T08:52:36;36.10;84.80
1988;DHT22;12775;46.994;15.498;2023-06-22T08:55:03;36.20;83.60
1988;DHT22;12775;46.994;15.498;2023-06-22T08:57:30;36.40;78.50
1988;DHT22;12775;46.994;15.498;2023-06-22T08:59:57;36.40;78.80
1988;DHT22;12775;46.994;15.498;2023-06-22T09:02:25;36.70;77.00
1988;DHT22;12775;46.994;15.498;2023-06-22T09:04:51;36.50;74.60
1988;DHT22;12775;46.994;15.498;2023-06-22T09:07:18;36.40;72.60
1988;DHT22;12775;46.994;15.498;2023-06-22T09:09:44;36.60;77.70
1988;DHT22;12775;46.994;15.498;2023-06-22T09:12:11;36.70;70.40
1988;DHT22;12775;46.994;15.498;2023-06-22T09:14:38;36.20;71.20
1988;DHT22;12775;46.994;15.498;2023-06-22T09:17:04;36.30;73.90
1988;DHT22;12775;46.994;15.498;2023-06-22T09:19:31;36.30;73.10
1988;DHT22;12775;46.994;15.498;2023-06-22T09:21:58;36.20;73.20
1988;DHT22;12775;46.994;15.498;2023-06-22T09:24:24;36.30;71.20
1988;DHT22;12775;46.994;15.498;2023-06-22T09:26:51;36.20;72.10
1988;DHT22;12775;46.994;15.498;2023-06-22T09:29:17;36.10;71.90
1988;DHT22;12775;46.994;15.498;2023-06-22T09:31:44;36.20;79.10
1988;DHT22;12775;46.994;15.498;2023-06-22T09:34:11;36.20;72.20
1988;DHT22;12775;46.994;15.498;2023-06-22T09:36:37;36.20;70.80
1988;DHT22;12775;46.994;15.498;2023-06-22T09:39:04;36.40;76.90
1988;DHT22;12775;46.994;15.498;2023-06-22T09:41:30;36.70;74.10
1988;DHT22;12775;46.994;15.498;2023-06-22T09:43:57;36.80;71.40
1988;DHT22;12775;46.994;15.498;2023-06-22T09:46:24;36.30;71.80
1988;DHT22;12775;46.994;15.498;2023-06-22T09:48:51;36.10;72.10
1988;DHT22;12775;46.994;15.498;2023-06-22T09:51:18;36.30;72.10
1988;DHT22;12775;46.994;15.498;2023-06-22T09:53:44;36.30;70.70
1988;DHT22;12775;46.994;15.498;2023-06-22T09:56:11;36.10;75.80
1988;DHT22;12775;46.994;15.498;2023-06-22T09:58:37;36.10;74.70
1988;DHT22;12775;46.994;15.498;2023-06-22T10:01:04;36.10;73.10
1988;DHT22;12775;46.994;15.498;2023-06-22T10:03:31;36.40;79.00
1988;DHT22;12775;46.994;15.498;2023-06-22T10:05:57;36.70;74.10
1988;DHT22;12775;46.994;15.498;2023-06-22T10:08:24;36.80;74.70
1988;DHT22;12775;46.994;15.498;2023-06-22T10:10:50;36.80;72.90
1988;DHT22;12775;46.994;15.498;2023-06-22T10:13:17;36.90;76.30
1988;DHT22;12775;46.994;15.498;2023-06-22T10:15:44;36.60;70.90
1988;DHT22;12775;46.994;15.498;2023-06-22T10:18:10;36.50;71.90
1988;DHT22;12775;46.994;15.498;2023-06-22T10:20:37;36.60;71.70
1988;DHT22;12775;46.994;15.498;2023-06-22T10:23:03;36.50;74.70
1988;DHT22;12775;46.994;15.498;2023-06-22T10:25:30;36.50;71.00
1988;DHT22;12775;46.994;15.498;2023-06-22T10:27:57;36.40;70.40
1988;DHT22;12775;46.994;15.498;2023-06-22T10:30:23;36.50;77.30
1988;DHT22;12775;46.994;15.498;2023-06-22T10:32:50;36.80;73.20
1988;DHT22;12775;46.994;15.498;2023-06-22T10:35:16;36.70;71.40
1988;DHT22;12775;46.994;15.498;2023-06-22T10:37:44;36.90;73.50
1988;DHT22;12775;46.994;15.498;2023-06-22T10:40:13;36.80;73.40
1988;DHT22;12775;46.994;15.498;2023-06-22T10:42:40;37.40;70.40
1988;DHT22;12775;46.994;15.498;2023-06-22T10:45:07;37.40;70.40
1988;DHT22;12775;46.994;15.498;2023-06-22T10:47:34;37.60;71.60
1988;DHT22;12775;46.994;15.498;2023-06-22T10:50:01;37.70;68.60
1988;DHT22;12775;46.994;15.498;2023-06-22T10:52:27;37.10;69.60
1988;DHT22;12775;46.994;15.498;2023-06-22T10:54:54;37.00;69.70
1988;DHT22;12775;46.994;15.498;2023-06-22T10:57:21;37.00;70.70
1988;DHT22;12775;46.994;15.498;2023-06-22T10:59:47;36.70;69.30
1988;DHT22;12775;46.994;15.498;2023-06-22T11:02:14;36.90;71.30
1988;DHT22;12775;46.994;15.498;2023-06-22T11:04:41;37.30;70.90
1988;DHT22;12775;46.994;15.498;2023-06-22T11:07:08;37.20;70.90
1988;DHT22;12775;46.994;15.498;2023-06-22T11:09:35;37.50;70.80
1988;DHT22;12775;46.994;15.498;2023-06-22T11:12:01;37.70;70.70
1988;DHT22;12775;46.994;15.498;2023-06-22T11:14:28;37.50;67.90
1988;DHT22;12775;46.994;15.498;2023-06-22T11:16:55;37.60;68.80
1988;DHT22;12775;46.994;15.498;2023-06-22T11:19:22;37.70;68.90
1988;DHT22;12775;46.994;15.498;2023-06-22T11:21:48;37.60;67.30
1988;DHT22;12775;46.994;15.498;2023-06-22T11:24:15;37.60;68.60
1988;DHT22;12775;46.994;15.498;2023-06-22T11:26:42;37.60;69.00
1988;DHT22;12775;46.994;15.498;2023-06-22T11:29:09;37.60;69.00
1988;DHT22;12775;46.994;15.498;2023-06-22T11:31:36;37.60;68.10
1988;DHT22;12775;46.994;15.498;2023-06-22T11:34:02;37.40;72.00
1988;DHT22;12775;46.994;15.498;2023-06-22T11:36:29;37.70;69.30
1988;DHT22;12775;46.994;15.498;2023-06-22T11:38:55;37.80;69.50
1988;DHT22;12775;46.994;15.498;2023-06-22T11:41:22;37.70;69.90
1988;DHT22;12775;46.994;15.498;2023-06-22T11:43:49;37.30;69.40
1988;DHT22;12775;46.994;15.498;2023-06-22T11:46:15;37.30;73.30
1988;DHT22;12775;46.994;15.498;2023-06-22T11:48:42;37.60;73.20
1988;DHT22;12775;46.994;15.498;2023-06-22T11:51:08;38.00;74.10
1988;DHT22;12775;46.994;15.498;2023-06-22T11:53:35;38.30;69.30
1988;DHT22;12775;46.994;15.498;2023-06-22T11:56:02;37.90;66.50
1988;DHT22;12775;46.994;15.498;2023-06-22T11:58:29;37.90;66.50
1988;DHT22;12775;46.994;15.498;2023-06-22T12:00:56;37.90;65.30
1988;DHT22;12775;46.994;15.498;2023-06-22T12:03:22;38.00;68.60
1988;DHT22;12775;46.994;15.498;2023-06-22T12:05:50;38.00;67.80
1988;DHT22;12775;46.994;15.498;2023-06-22T12:08:15;38.30;70.50
1988;DHT22;12775;46.994;15.498;2023-06-22T12:10:45;38.60;66.50
1988;DHT22;12775;46.994;15.498;2023-06-22T12:13:12;38.60;70.90
1988;DHT22;12775;46.994;15.498;2023-06-22T12:15:38;38.80;67.60
1988;DHT22;12775;46.994;15.498;2023-06-22T12:18:05;38.70;66.70
1988;DHT22;12775;46.994;15.498;2023-06-22T12:20:31;38.70;66.80
1988;DHT22;12775;46.994;15.498;2023-06-22T12:22:58;38.40;67.80
1988;DHT22;12775;46.994;15.498;2023-06-22T12:25:25;38.50;67.50
1988;DHT22;12775;46.994;15.498;2023-06-22T12:27:51;38.60;66.70
1988;DHT22;12775;46.994;15.498;2023-06-22T12:30:18;38.30;69.70
1988;DHT22;12775;46.994;15.498;2023-06-22T12:32:44;38.40;66.30
1988;DHT22;12775;46.994;15.498;2023-06-22T12:35:11;38.30;66.90
1988;DHT22;12775;46.994;15.498;2023-06-22T12:37:38;38.30;69.70
1988;DHT22;12775;46.994;15.498;2023-06-22T12:40:06;38.30;65.80
1988;DHT22;12775;46.994;15.498;2023-06-22T12:42:33;38.30;65.80
1988;DHT22;12775;46.994;15.498;2023-06-22T12:44:59;38.40;69.70
1988;DHT22;12775;46.994;15.498;2023-06-22T12:47:26;38.40;70.80
1988;DHT22;12775;46.994;15.498;2023-06-22T12:49:52;38.50;72.70
1988;DHT22;12775;46.994;15.498;2023-06-22T12:52:19;38.90;71.50
1988;DHT22;12775;46.994;15.498;2023-06-22T12:54:46;39.20;70.50
1988;DHT22;12775;46.994;15.498;2023-06-22T12:57:12;39.30;68.20
1988;DHT22;12775;46.994;15.498;2023-06-22T12:59:39;39.60;67.80
1988;DHT22;12775;46.994;15.498;2023-06-22T13:02:05;39.70;68.40
1988;DHT22;12775;46.994;15.498;2023-06-22T13:04:32;39.50;67.40
1988;DHT22;12775;46.994;15.498;2023-06-22T13:06:59;39.50;65.60
1988;DHT22;12775;46.994;15.498;2023-06-22T13:09:26;39.40;67.10
1988;DHT22;12775;46.994;15.498;2023-06-22T13:11:53;38.90;65.60
1988;DHT22;12775;46.994;15.498;2023-06-22T13:14:19;38.70;66.70
1988;DHT22;12775;46.994;15.498;2023-06-22T13:16:46;38.30;66.50
1988;DHT22;12775;46.994;15.498;2023-06-22T13:19:13;38.60;69.00
1988;DHT22;12775;46.994;15.498;2023-06-22T13:21:39;38.70;69.10
1988;DHT22;12775;46.994;15.498;2023-06-22T13:24:06;38.90;66.90
1988;DHT22;12775;46.994;15.498;2023-06-22T13:26:32;38.80;69.40
1988;DHT22;12775;46.994;15.498;2023-06-22T13:28:59;38.40;67.40
1988;DHT22;12775;46.994;15.498;2023-06-22T13:31:26;38.30;67.50
1988;DHT22;12775;46.994;15.498;2023-06-22T13:33:52;38.10;68.70
1988;DHT22;12775;46.994;15.498;2023-06-22T13:36:19;38.30;69.50
1988;DHT22;12775;46.994;15.498;2023-06-22T13:38:45;38.60;69.60
1988;DHT22;12775;46.994;15.498;2023-06-22T13:41:12;38.80;68.10
1988;DHT22;12775;46.994;15.498;2023-06-22T13:43:39;38.80;65.10
1988;DHT22;12775;46.994;15.498;2023-06-22T13:46:05;38.60;65.70
1988;DHT22;12775;46.994;15.498;2023-06-22T13:48:32;38.50;67.00
1988;DHT22;12775;46.994;15.498;2023-06-22T13:50:58;38.60;67.70
1988;DHT22;12775;46.994;15.498;2023-06-22T13:53:25;38.60;66.50
1988;DHT22;12775;46.994;15.498;2023-06-22T13:55:52;38.40;67.50
1988;DHT22;12775;46.994;15.498;2023-06-22T13:58:19;38.40;69.60
1988;DHT22;12775;46.994;15.498;2023-06-22T14:00:46;38.50;71.10
1988;DHT22;12775;46.994;15.498;2023-06-22T14:03:12;38.80;68.70
1988;DHT22;12775;46.994;15.498;2023-06-22T14:05:39;38.90;68.50
1988;DHT22;12775;46.994;15.498;2023-06-22T14:08:06;38.80;65.80
1988;DHT22;12775;46.994;15.498;2023-06-22T14:10:32;38.50;66.80
1988;DHT22;12775;46.994;15.498;2023-06-22T14:12:59;38.40;70.20
1988;DHT22;12775;46.994;15.498;2023-06-22T14:15:25;38.50;69.80
1988;DHT22;12775;46.994;15.498;2023-06-22T14:17:52;38.60;68.30
1988;DHT22;12775;46.994;15.498;2023-06-22T14:20:19;38.60;66.50
1988;DHT22;12775;46.994;15.498;2023-06-22T14:22:45;38.70;66.70
1988;DHT22;12775;46.994;15.498;2023-06-22T14:25:12;38.70;67.90
1988;DHT22;12775;46.994;15.498;2023-06-22T14:27:38;38.50;68.40
1988;DHT22;12775;46.994;15.498;2023-06-22T14:30:06;38.50;66.50
1988;DHT22;12775;46.994;15.498;2023-06-22T14:32:33;38.10;68.40
1988;DHT22;12775;46.994;15.498;2023-06-22T14:35:00;38.10;68.40
1988;DHT22;12775;46.994;15.498;2023-06-22T14:37:26;37.90;67.70
1988;DHT22;12775;46.994;15.498;2023-06-22T14:39:53;37.70;67.70
1988;DHT22;12775;46.994;15.498;2023-06-22T14:42:20;37.70;67.70
1988;DHT22;12775;46.994;15.498;2023-06-22T14:44:46;37.80;69.10
1988;DHT22;12775;46.994;15.498;2023-06-22T14:47:14;37.60;68.70
1988;DHT22;12775;46.994;15.498;2023-06-22T14:49:40;37.50;68.50
1988;DHT22;12775;46.994;15.498;2023-06-22T14:52:07;36.90;70.30
1988;DHT22;12775;46.994;15.498;2023-06-22T14:54:33;36.90;69.20
1988;DHT22;12775;46.994;15.498;2023-06-22T14:57:00;36.80;71.60
1988;DHT22;12775;46.994;15.498;2023-06-22T14:59:26;37.10;73.80
1988;DHT22;12775;46.994;15.498;2023-06-22T15:01:53;37.20;73.50
1988;DHT22;12775;46.994;15.498;2023-06-22T15:04:20;37.40;71.40
1988;DHT22;12775;46.994;15.498;2023-06-22T15:06:47;37.40;71.40
1988;DHT22;12775;46.994;15.498;2023-06-22T15:09:14;37.40;71.70
1988;DHT22;12775;46.994;15.498;2023-06-22T15:11:40;37.20;72.60
1988;DHT22;12775;46.994;15.498;2023-06-22T15:14:07;37.20;72.20
1988;DHT22;12775;46.994;15.498;2023-06-22T15:16:34;36.90;72.50
1988;DHT22;12775;46.994;15.498;2023-06-22T15:19:01;36.90;72.50
1988;DHT22;12775;46.994;15.498;2023-06-22T15:21:27;36.90;72.80
1988;DHT22;12775;46.994;15.498;2023-06-22T15:23:54;36.60;72.80
1988;DHT22;12775;46.994;15.498;2023-06-22T15:26:21;36.70;72.60
1988;DHT22;12775;46.994;15.498;2023-06-22T15:28:47;36.70;72.10